Latest Coastal Weather Observations for Portland Harbour

IDV60701

Issued at 7:32 am EDT Sunday 11 December 2016 (issued every 10 minutes, with the page automatically refreshed every 10 minutes)

About coastal observations | Map of coastal stations | Coastal observations for VIC | Marine services | Other Formats
Station Details ID: 090192 Name: PORTLAND NTC AWS Lat: -38.34 Lon: 141.61 Height: 0.0 m
Data from the previous 72 hours. | See also: Recent months for locations in Victoria
Date/Time
EDT
Temp
°C
Wind Pressure Rain since
9am
mm
Weather Cloud Vis
km
Sea
Height
m
Swell
Dir  Spd
kts
Gust
kts
hPa Trend Height
m
Period
s
Dir
11/07:00am 14.0 S 5 7 1023.7 - - - - - - - - -
11/06:30am 13.8 S 5 6 1023.3 - - - - - - - - -
11/06:00am 13.8 SSE 5 8 1023.0 - - - - - - - - -
11/05:30am 13.8 SSE 8 11 1022.8 - - - - - - - - -
11/05:00am 13.9 SSE 9 13 1022.6 - - - - - - - - -
11/04:30am 12.9 S 3 5 1022.5 - - - - - - - - -
11/04:00am 12.5 SW 3 4 1022.7 - - - - - - - - -
11/03:30am 11.6 WSW 2 3 1022.8 - - - - - - - - -
11/03:00am 11.7 W 3 5 1023.0 - - - - - - - - -
11/02:30am 11.5 WSW 3 4 1023.2 - - - - - - - - -
11/02:00am 11.7 WSW 2 3 1023.5 - - - - - - - - -
11/01:30am 11.4 SW 3 4 1023.9 - - - - - - - - -
11/01:00am 11.8 WSW 2 3 1024.0 - - - - - - - - -
11/12:30am 11.9 WSW 3 4 1024.2 - - - - - - - - -
11/12:00am 12.7 SW 3 4 1024.3 - - - - - - - - -
 
Date/Time
EDT
Temp
°C
Wind Pressure Rain since
9am
mm
Weather Cloud Vis
km
Sea
Height
m
Swell
Dir  Spd
kts
Gust
kts
hPa Trend Height
m
Period
s
Dir
10/11:30pm 13.1 WSW 3 5 1024.3 - - - - - - - - -
10/11:00pm 13.6 SW 3 5 1024.4 - - - - - - - - -
10/10:30pm 13.6 SSW 4 5 1024.4 - - - - - - - - -
10/10:00pm 13.8 SW 5 6 1024.3 - - - - - - - - -
10/09:30pm 13.9 SW 4 6 1024.1 - - - - - - - - -
10/09:00pm 14.0 WSW 4 7 1024.0 - - - - - - - - -
10/08:30pm 14.0 SW 6 8 1023.9 - - - - - - - - -
10/08:00pm 14.0 SW 6 7 1023.7 - - - - - - - - -
10/07:30pm 14.1 SW 8 11 1023.6 - - - - - - - - -
10/07:00pm 14.4 SW 9 13 1023.4 - - - - - - - - -
10/06:30pm 14.4 SW 10 14 1023.3 - - - - - - - - -
10/06:00pm 14.3 WSW 10 14 1023.4 - - - - - - - - -
10/05:30pm 12.9 WSW 11 16 1023.6 - - - - - - - - -
10/05:00pm 14.8 SW 10 14 1023.4 - - - - - - - - -
10/04:30pm 14.6 WSW 9 13 1023.5 - - - - - - - - -
10/04:00pm 14.7 WSW 11 16 1023.5 - - - - - - - - -
10/03:30pm 15.2 WSW 8 13 1023.7 - - - - - - - - -
10/03:00pm 14.5 WSW 12 16 1024.0 - - - - - - - - -
10/02:30pm 14.7 SW 12 18 1024.1 - - - - - - - - -
10/02:00pm 14.3 SW 12 18 1024.4 - - - - - - - - -
10/01:30pm 13.9 WSW 11 15 1024.5 - - - - - - - - -
10/01:00pm 14.3 WSW 10 14 1024.4 - - - - - - - - -
10/12:30pm 14.6 SW 7 12 1024.4 - - - - - - - - -
10/12:00pm 14.4 SSW 8 11 1024.4 - - - - - - - - -
10/11:30am 13.0 WSW 11 15 1024.6 - - - - - - - - -
10/11:00am 13.9 WSW 10 15 1024.7 - - - - - - - - -
10/10:30am 13.0 WSW 9 13 1024.6 - - - - - - - - -
10/10:00am 12.1 W 9 12 1024.7 - - - - - - - - -
10/09:30am 12.8 WNW 1 4 1024.6 - - - - - - - - -
10/09:00am 12.1 NW 6 9 1024.4 - - - - - - - - -
10/08:30am 11.7 NW 6 9 1024.1 - - - - - - - - -
10/08:00am 11.4 NW 6 9 1023.9 - - - - - - - - -
10/07:30am 11.6 NW 6 8 1023.6 - - - - - - - - -
10/07:00am 11.0 NW 5 7 1023.2 - - - - - - - - -
10/06:30am 10.9 NW 5 6 1022.9 - - - - - - - - -
10/06:00am 10.6 WNW 5 6 1022.6 - - - - - - - - -
10/05:30am 10.7 WNW 5 7 1022.6 - - - - - - - - -
10/05:00am 10.4 W 5 7 1022.3 - - - - - - - - -
10/04:30am 10.6 WNW 6 7 1022.1 - - - - - - - - -
10/04:00am 10.8 WNW 5 6 1022.2 - - - - - - - - -
10/03:30am 11.3 NW 5 6 1022.3 - - - - - - - - -
10/03:00am 11.5 WNW 4 5 1022.4 - - - - - - - - -
10/02:30am 11.6 WSW 3 4 1022.7 - - - - - - - - -
10/02:00am 11.7 WSW 3 4 1022.7 - - - - - - - - -
10/01:30am 12.3 SW 3 5 1022.8 - - - - - - - - -
10/01:00am 12.0 SW 6 8 1023.1 - - - - - - - - -
10/12:30am 12.6 SSW 5 6 1023.1 - - - - - - - - -
10/12:00am 12.9 SSW 4 6 1023.2 - - - - - - - - -
 
Date/Time
EDT
Temp
°C
Wind Pressure Rain since
9am
mm
Weather Cloud Vis
km
Sea
Height
m
Swell
Dir  Spd
kts
Gust
kts
hPa Trend Height
m
Period
s
Dir
09/11:30pm 12.4 WSW 3 5 1023.2 - - - - - - - - -
09/11:00pm 12.5 WNW 3 4 1023.3 - - - - - - - - -
09/10:30pm 12.9 SW 4 6 1023.3 - - - - - - - - -
09/10:00pm 12.8 SW 3 4 1023.1 - - - - - - - - -
09/09:30pm 12.7 SW 6 8 1023.1 - - - - - - - - -
09/09:00pm 13.1 SW 5 7 1022.9 - - - - - - - - -
09/08:30pm 13.3 SW 8 10 1022.8 - - - - - - - - -
09/08:00pm 13.2 SW 8 11 1022.7 - - - - - - - - -
09/07:30pm 13.2 SW 7 11 1022.5 - - - - - - - - -
09/07:00pm 12.9 SW 12 15 1022.1 - - - - - - - - -
09/06:30pm 13.5 SSW 11 14 1021.6 - - - - - - - - -
09/06:00pm 13.7 SW 12 17 1021.6 - - - - - - - - -
09/05:30pm 13.9 SSW 11 16 1021.6 - - - - - - - - -
09/05:00pm 14.3 SW 12 17 1021.5 - - - - - - - - -
09/04:30pm 13.7 SSW 14 19 1021.5 - - - - - - - - -
09/04:00pm 13.8 SSW 13 18 1021.3 - - - - - - - - -
09/03:30pm 13.3 SSW 12 16 1021.4 - - - - - - - - -
09/03:00pm 13.0 SSW 12 19 1021.5 - - - - - - - - -
09/02:30pm 13.1 SSW 13 18 1021.4 - - - - - - - - -
09/02:00pm 14.2 SW 14 19 1021.1 - - - - - - - - -
09/01:30pm 13.8 SW 16 24 1021.0 - - - - - - - - -
09/01:00pm 14.4 SW 12 19 1020.7 - - - - - - - - -
09/12:30pm 13.9 SSW 12 21 1020.5 - - - - - - - - -
09/12:00pm 13.3 SSW 16 20 1020.4 - - - - - - - - -
09/11:30am 13.7 SSW 14 18 1020.1 - - - - - - - - -
09/11:00am 13.3 SSW 15 20 1019.9 - - - - - - - - -
09/10:30am 13.8 SSW 14 21 1019.5 - - - - - - - - -
09/10:00am 13.2 SSW 13 20 1019.4 - - - - - - - - -
09/09:30am 13.1 SSW 15 21 1019.0 - - - - - - - - -
09/09:00am 12.9 SW 12 17 1018.4 - - - - - - - - -
09/08:30am 12.9 SSW 16 23 1017.8 - - - - - - - - -
09/08:00am 13.0 SSW 16 20 1017.3 - - - - - - - - -
09/07:30am 13.1 SSW 15 22 1016.6 - - - - - - - - -
09/07:00am 12.8 SSW 16 25 1016.1 - - - - - - - - -
09/06:30am 12.5 SSW 13 18 1015.7 - - - - - - - - -
09/06:00am 12.6 SSW 15 21 1015.2 - - - - - - - - -
09/05:35am 12.3 SSW 15 25 1014.8 - - - - - - - - -
09/05:30am 12.3 SSW 16 25 1014.7 - - - - - - - - -
09/05:00am 12.1 SW 15 20 1014.3 - - - - - - - - -
09/04:30am 11.9 SSW 16 22 1013.8 - - - - - - - - -
09/04:17am 12.1 SSW 15 26 1013.6 - - - - - - - - -
09/04:00am 11.0 SW 13 20 1013.5 - - - - - - - - -
09/03:30am 12.4 SSW 16 23 1013.1 - - - - - - - - -
09/03:00am 12.5 SW 13 23 1012.9 - - - - - - - - -
09/02:30am 12.1 SSW 14 19 1012.7 - - - - - - - - -
09/02:00am 12.5 SW 14 22 1012.7 - - - - - - - - -
09/01:30am 12.1 SSW 17 23 1012.6 - - - - - - - - -
09/01:00am 12.5 SSW 15 24 1012.3 - - - - - - - - -
09/12:31am 12.2 SSW 17 27 1012.2 - - - - - - - - -
09/12:30am 12.2 SSW 18 27 1012.2 - - - - - - - - -
09/12:18am 12.8 SSW 18 29 1012.1 - - - - - - - - -
09/12:00am 12.0 SW 10 15 1012.0 - - - - - - - - -
 
Date/Time
EDT
Temp
°C
Wind Pressure Rain since
9am
mm
Weather Cloud Vis
km
Sea
Height
m
Swell
Dir  Spd
kts
Gust
kts
hPa Trend Height
m
Period
s
Dir
08/11:30pm 13.2 SW 14 21 1011.5 - - - - - - - - -
08/11:00pm 12.9 SW 12 17 1011.2 - - - - - - - - -
08/10:30pm 13.1 SSW 18 25 1010.6 - - - - - - - - -
08/10:00pm 12.6 SW 16 26 1010.0 - - - - - - - - -
08/09:32pm 13.5 SW 15 26 1009.3 - - - - - - - - -
08/09:30pm 13.4 SW 14 22 1009.3 - - - - - - - - -
08/09:08pm 13.3 SW 17 31 1008.9 - - - - - - - - -
08/09:00pm 13.6 SW 18 25 1008.7 - - - - - - - - -
08/08:34pm 13.6 SW 17 29 1008.0 - - - - - - - - -
08/08:30pm 13.8 SW 18 27 1008.0 - - - - - - - - -
08/08:19pm 13.7 SW 20 31 1007.7 - - - - - - - - -
08/08:00pm 13.9 SW 20 27 1007.3 - - - - - - - - -
08/07:35pm 13.9 SW 19 29 1006.8 - - - - - - - - -
08/07:30pm 13.9 SW 20 29 1006.7 - - - - - - - - -
08/07:00pm 13.5 WSW 19 30 1006.1 - - - - - - - - -
08/06:33pm 13.3 SW 19 29 1005.4 - - - - - - - - -
08/06:30pm 13.5 SW 18 26 1005.4 - - - - - - - - -
08/06:11pm 13.5 SW 22 34 1004.8 - - - - - - - - -
08/06:00pm 13.2 SW 22 30 1004.6 - - - - - - - - -
08/05:30pm 13.4 SW 22 32 1003.8 - - - - - - - - -
08/05:03pm 13.2 SW 21 33 1003.2 - - - - - - - - -
08/05:00pm 13.0 SW 21 30 1003.1 - - - - - - - - -
08/04:30pm 12.7 SW 24 35 1002.5 - - - - - - - - -
08/04:00pm 14.5 WSW 23 37 1001.4 - - - - - - - - -
08/03:36pm 14.4 WSW 20 31 1000.7 - - - - - - - - -
08/03:30pm 14.3 WSW 19 28 1000.9 - - - - - - - - -
08/03:00pm 15.0 WSW 27 37 1000.5 - - - - - - - - -
08/02:30pm 14.9 W 27 38 999.7 - - - - - - - - -
08/02:00pm 15.4 W 24 39 999.2 - - - - - - - - -
08/01:30pm 16.0 W 24 38 998.9 - - - - - - - - -
08/01:01pm 15.9 W 25 37 998.5 - - - - - - - - -
08/01:00pm 15.9 W 25 34 998.6 - - - - - - - - -
08/12:30pm 15.6 W 22 35 998.3 - - - - - - - - -
08/12:00pm 15.8 W 24 37 997.9 - - - - - - - - -
08/11:30am 14.9 W 23 39 997.7 - - - - - - - - -
08/11:00am 15.6 WNW 28 40 997.1 - - - - - - - - -
08/10:30am 15.6 WNW 27 45 997.0 - - - - - - - - -
08/10:00am 16.0 WNW 28 40 996.4 - - - - - - - - -
08/09:30am 16.1 WNW 26 41 996.0 - - - - - - - - -
08/09:06am 15.4 WNW 22 33 996.1 - - - - - - - - -
08/09:00am 15.7 WNW 23 32 996.1 - - - - - - - - -
08/08:30am 15.7 WNW 24 36 995.7 - - - - - - - - -
08/08:00am 15.2 W 25 38 995.6 - - - - - - - - -

Other Formats:

Comma delimited format used in spreadsheet applications
http://www.bom.gov.au/fwo/IDV60701/IDV60701.95826.axf

JavaScript Object Notation format (JSON) in row-major order
http://www.bom.gov.au/fwo/IDV60701/IDV60701.95826.json